Time;durP1;ratioP1;P1;durP2;ratioP2;P2;SDS_P1;SDS_P2;PMS_P1;PMS_P2;Temp;Humidity;BMP_temperature;BMP_pressure;BME280_temperature;BME280_humidity;BME280_pressure;Samples;Min_cycle;Max_cycle;Signal;HPM_P1;HPM_P2
2021/03/31 00:02:03;;;;;;;;;;;;;;;;;;;;;
2021/03/31 00:07:13;;;;;;;81.83;49.55;;;;;;;10.50;66.08;100145.36;258355;1116;115391;-69
2021/03/31 00:12:38;;;;;;;86.18;50.83;;;;;;;10.42;65.54;100136.83;258316;1116;114939;-69
2021/03/31 00:17:41;;;;;;;81.90;46.53;;;;;;;10.50;67.33;100144.50;258406;1115;115244;-67
2021/03/31 00:22:52;;;;;;;79.08;46.30;;;;;;;10.58;66.36;100140.55;258306;1116;115820;-71
2021/03/31 00:27:57;;;;;;;78.50;46.13;;;;;;;10.58;66.13;100145.02;258391;1116;115184;-68
2021/03/31 00:33:00;;;;;;;81.70;48.38;;;;;;;10.58;66.44;100135.23;258492;1115;115180;-66
2021/03/31 00:38:04;;;;;;;76.78;46.60;;;;;;;10.56;66.17;100122.91;258332;1115;115354;-67
2021/03/31 00:43:11;;;;;;;78.93;48.23;;;;;;;10.67;66.40;100122.45;258461;1109;115437;-67
2021/03/31 00:48:19;;;;;;;85.00;48.48;;;;;;;10.79;67.11;100116.55;258452;1115;115112;-69
2021/03/31 00:53:35;;;;;;;82.93;50.43;;;;;;;10.88;67.14;100117.00;257921;1116;115410;-68
2021/03/31 00:58:45;;;;;;;84.00;46.18;;;;;;;11.00;66.95;100118.22;258363;1116;115345;-70
2021/03/31 01:03:48;;;;;;;74.53;44.10;;;;;;;11.11;67.50;100115.94;258358;1115;115382;-70
2021/03/31 01:08:56;;;;;;;68.38;43.63;;;;;;;11.16;66.80;100112.19;258426;1116;115092;-67
2021/03/31 01:14:09;;;;;;;67.15;42.05;;;;;;;11.02;65.37;100112.84;258337;1116;115656;-68
2021/03/31 01:19:51;;;;;;;66.28;42.93;;;;;;;10.85;65.80;100116.28;258318;1116;115458;-66
2021/03/31 01:25:18;;;;;;;65.98;43.25;;;;;;;10.66;65.23;100118.91;258395;1114;115261;-67
2021/03/31 01:30:38;;;;;;;68.05;42.63;;;;;;;10.45;65.44;100123.39;258411;1115;115876;-66
2021/03/31 01:35:42;;;;;;;64.45;41.50;;;;;;;10.29;65.28;100115.23;258396;1115;115231;-67
2021/03/31 01:40:50;;;;;;;66.80;43.23;;;;;;;10.14;65.77;100119.37;258412;1115;115628;-67
2021/03/31 01:45:56;;;;;;;64.73;40.40;;;;;;;10.01;65.44;100120.81;258367;1114;115192;-68
2021/03/31 01:51:09;;;;;;;65.58;40.33;;;;;;;9.90;65.86;100123.08;258230;1114;115349;-68
2021/03/31 01:56:37;;;;;;;73.78;44.10;;;;;;;10.07;67.06;100117.91;258369;1116;114856;-70
2021/03/31 02:02:00;;;;;;;74.38;47.53;;;;;;;10.28;67.08;100113.48;258373;1116;115437;-71
2021/03/31 02:07:13;;;;;;;84.30;49.78;;;;;;;10.45;67.51;100106.56;258395;1114;115310;-70
2021/03/31 02:12:44;;;;;;;88.23;52.47;;;;;;;10.62;67.58;100106.67;258312;1115;115308;-69
2021/03/31 02:18:13;;;;;;;88.15;53.73;;;;;;;10.72;67.69;100099.99;258261;1116;115234;-69
2021/03/31 02:23:31;;;;;;;79.40;49.05;;;;;;;10.80;67.25;100099.64;258419;1114;115206;-68
2021/03/31 02:28:55;;;;;;;75.53;44.38;;;;;;;10.69;66.61;100096.61;258388;1116;115050;-69
2021/03/31 02:40:03;;;;;;;66.95;42.93;;;;;;;10.45;66.27;100086.13;257981;1117;115394;-70
2021/03/31 02:45:39;;;;;;;85.30;50.30;;;;;;;10.34;66.26;100089.27;257641;1118;115210;-69
2021/03/31 02:50:54;;;;;;;;;;;;;;;;;;;;;
2021/03/31 02:56:15;;;;;;;81.78;51.63;;;;;;;10.48;67.12;100079.81;257789;1116;116434;-68
2021/03/31 03:01:33;;;;;;;69.28;44.50;;;;;;;10.50;67.01;100084.14;258109;1115;115225;-67
2021/03/31 03:06:55;;;;;;;83.03;50.30;;;;;;;10.49;67.14;100082.39;258285;1116;115225;-66
2021/03/31 03:12:01;;;;;;;82.53;49.25;;;;;;;10.55;67.79;100081.27;258441;1116;115565;-66
2021/03/31 03:17:06;;;;;;;80.65;49.93;;;;;;;10.60;66.92;100090.78;258351;1114;115998;-67
2021/03/31 03:22:12;;;;;;;79.58;50.00;;;;;;;10.58;67.56;100084.65;258405;1116;115279;-66
2021/03/31 03:27:19;;;;;;;79.48;50.05;;;;;;;10.54;67.39;100082.20;258370;1116;115206;-70
2021/03/31 03:32:55;;;;;;;86.75;50.48;;;;;;;10.45;67.32;100085.27;258401;1116;116136;-69
2021/03/31 03:38:27;;;;;;;82.98;51.88;;;;;;;10.34;66.58;100083.95;258332;1116;115495;-68
2021/03/31 03:43:53;;;;;;;;;;;;;;;;;;;;;
2021/03/31 03:49:48;;;;;;;;;;;;;;;;;;;;;
2021/03/31 03:54:53;;;;;;;89.63;55.58;;;;;;;10.33;67.89;100082.23;258264;1116;115034;-66
2021/03/31 03:59:57;;;;;;;98.10;56.10;;;;;;;10.37;67.81;100080.30;258411;1115;115448;-66
2021/03/31 04:05:02;;;;;;;86.30;56.78;;;;;;;10.37;67.61;100082.96;258370;1116;114996;-69
2021/03/31 04:10:17;;;;;;;92.65;58.28;;;;;;;10.34;67.58;100080.44;258363;1115;115259;-69
2021/03/31 04:15:45;;;;;;;92.98;59.00;;;;;;;10.30;68.12;100081.50;258102;1118;115159;-72
2021/03/31 04:20:56;;;;;;;90.97;56.97;;;;;;;10.29;67.68;100079.75;257760;1118;115176;-73
2021/03/31 04:26:13;;;;;;;95.25;58.33;;;;;;;10.30;67.94;100079.70;257861;1117;115992;-70
2021/03/31 04:31:27;;;;;;;;;;;;;;;10.32;67.68;100079.63;257272;1116;115487;-74
2021/03/31 04:36:32;;;;;;;96.25;61.05;;;;;;;10.32;67.91;100075.16;258506;1115;101733;-75
2021/03/31 04:42:09;;;;;;;98.15;60.68;;;;;;;10.30;68.00;100070.87;258221;1116;115760;-72
2021/03/31 04:47:12;;;;;;;99.03;62.15;;;;;;;10.30;68.16;100069.06;258449;1115;115814;-74
2021/03/31 04:52:34;;;;;;;;;;;;;;;;;;;;;
2021/03/31 04:57:59;;;;;;;92.17;58.30;;;;;;;10.27;68.28;100076.31;258398;1115;115715;-75
2021/03/31 05:03:08;;;;;;;91.13;55.83;;;;;;;10.25;67.75;100076.33;253427;1116;115701;-78
2021/03/31 05:08:21;;;;;;;94.88;56.00;;;;;;;10.28;67.95;100072.72;258430;1114;115254;-71
2021/03/31 05:13:33;;;;;;;84.63;57.50;;;;;;;10.28;68.16;100076.23;258501;1116;114987;-73
2021/03/31 05:18:42;;;;;;;95.57;58.20;;;;;;;10.24;68.17;100074.61;258326;1115;115753;-72
2021/03/31 05:23:50;;;;;;;97.30;61.58;;;;;;;10.26;68.14;100085.20;258283;1116;116004;-72
2021/03/31 05:29:03;;;;;;;101.15;61.75;;;;;;;10.33;68.41;100086.70;258175;1116;115526;-75
2021/03/31 05:34:08;;;;;;;91.98;57.50;;;;;;;10.36;68.44;100081.20;258184;1116;116305;-72
2021/03/31 05:39:14;;;;;;;94.45;56.55;;;;;;;10.42;68.55;100078.28;258278;1115;115808;-72
2021/03/31 05:44:20;;;;;;;94.98;57.93;;;;;;;10.52;68.49;100090.24;258184;1114;116063;-70
2021/03/31 05:49:31;;;;;;;93.97;57.25;;;;;;;10.64;68.53;100091.50;258233;1116;115724;-69
2021/03/31 05:54:49;;;;;;;96.75;57.75;;;;;;;10.70;68.74;100080.58;258181;1116;115071;-74
2021/03/31 05:59:59;;;;;;;89.48;56.50;;;;;;;10.80;68.02;100073.90;258178;1115;116097;-76
2021/03/31 06:05:30;;;;;;;;;;;;;;;;;;;;;
2021/03/31 06:11:12;;;;;;;93.33;55.78;;;;;;;11.01;68.13;100072.03;258020;1116;115166;-77
2021/03/31 06:24:31;;;;;;;;;;;;;;;;;;;;;
2021/03/31 06:30:28;;;;;;;90.63;55.88;;;;;;;11.49;68.22;100075.92;256781;1121;115295;-76
2021/03/31 06:35:32;;;;;;;87.58;57.15;;;;;;;11.62;68.17;100076.19;257193;1120;115765;-75
2021/03/31 06:40:47;;;;;;;97.25;58.40;;;;;;;11.75;67.62;100074.64;257330;1119;116366;-77
2021/03/31 06:46:07;;;;;;;84.53;55.83;;;;;;;11.88;68.01;100080.23;257587;1117;115603;-72
2021/03/31 06:51:31;;;;;;;84.85;54.53;;;;;;;12.07;68.23;100067.69;257822;1116;115383;-75
2021/03/31 06:56:57;;;;;;;94.08;53.80;;;;;;;12.30;67.83;100063.83;258043;1116;115562;-76
2021/03/31 07:02:15;;;;;;;89.58;53.10;;;;;;;12.47;68.03;100049.58;257972;1116;116645;-78
2021/03/31 07:07:42;;;;;;;88.73;54.70;;;;;;;12.68;68.03;100049.37;258050;1116;116078;-78
2021/03/31 07:13:24;;;;;;;90.80;52.73;;;;;;;12.86;67.75;100056.36;258203;1115;115075;-80
2021/03/31 07:18:38;;;;;;;75.83;46.45;;;;;;;13.00;67.09;100048.44;258255;1116;116218;-78
2021/03/31 07:24:07;;;;;;;;;;;;;;;;;;;;;
2021/03/31 07:29:12;;;;;;;68.43;41.25;;;;;;;13.22;66.45;100044.58;258518;1116;116182;-75
2021/03/31 07:34:28;;;;;;;64.23;40.58;;;;;;;13.33;66.40;100050.20;258246;1116;115573;-78
2021/03/31 07:39:36;;;;;;;61.43;38.03;;;;;;;13.51;66.21;100044.73;258466;1116;115446;-80
2021/03/31 07:44:49;;;;;;;62.85;39.58;;;;;;;13.73;66.88;100034.52;256327;1116;115043;-69
2021/03/31 07:49:58;;;;;;;64.40;39.23;;;;;;;13.94;66.02;100041.26;257926;1116;115665;-68
2021/03/31 07:55:41;;;;;;;68.65;41.03;;;;;;;14.17;66.49;100039.88;258144;1115;116072;-73
2021/03/31 08:01:11;;;;;;;65.20;38.30;;;;;;;14.32;65.64;100035.39;257875;1116;115706;-69
2021/03/31 08:06:29;;;;;;;58.50;38.20;;;;;;;14.44;65.18;100031.11;257939;1116;115490;-68
2021/03/31 08:11:37;;;;;;;64.70;39.88;;;;;;;14.58;65.11;100027.60;257779;1117;116525;-67
2021/03/31 08:16:51;;;;;;;58.00;38.45;;;;;;;14.72;65.27;100011.51;258133;1116;116889;-67
2021/03/31 08:22:07;;;;;;;;;;;;;;;;;;;;;
2021/03/31 08:27:18;;;;;;;61.00;34.95;;;;;;;15.04;64.39;100009.42;258158;1115;116183;-68
2021/03/31 08:38:36;;;;;;;59.25;35.35;;;;;;;15.38;64.40;99996.48;258111;1116;115435;-68
2021/03/31 08:51:01;;;;;;;;;;;;;;;;;;;;;
2021/03/31 08:56:37;;;;;;;56.03;37.18;;;;;;;16.06;63.44;99973.99;257906;1115;115546;-68
2021/03/31 09:02:05;;;;;;;56.43;36.40;;;;;;;16.26;63.20;99964.55;258066;1116;115578;-70
2021/03/31 09:08:42;;;;;;;;;;;;;;;;;;;;;
2021/03/31 09:13:54;;;;;;;55.55;34.80;;;;;;;16.61;62.41;99956.66;258053;1115;115006;-69
2021/03/31 09:19:52;;;;;;;49.58;29.80;;;;;;;16.82;62.30;99956.95;258161;1116;115766;-69
2021/03/31 09:25:18;;;;;;;;;;;;;;;;;;;;;
2021/03/31 09:31:11;;;;;;;69.70;43.07;;;;;;;17.28;62.23;99939.22;258340;1114;115021;-67
2021/03/31 09:37:26;;;;;;;42.40;25.75;;;;;;;17.49;61.60;99942.97;258163;1116;115321;-67
2021/03/31 09:43:13;;;;;;;41.93;25.25;;;;;;;17.61;60.86;99938.50;258148;1116;115195;-68
2021/03/31 09:49:06;;;;;;;38.47;24.93;;;;;;;17.77;60.59;99922.06;258205;1116;115239;-69
2021/03/31 09:54:35;;;;;;;35.70;23.48;;;;;;;17.90;60.55;99923.67;258149;1116;115565;-68
2021/03/31 09:59:59;;;;;;;39.87;24.70;;;;;;;18.06;60.61;99917.06;258192;1115;116413;-68
2021/03/31 10:05:36;;;;;;;41.90;26.28;;;;;;;18.22;60.06;99927.50;258130;1111;116667;-68
2021/03/31 10:10:57;;;;;;;55.83;39.50;;;;;;;18.54;60.03;99908.72;258073;1116;116050;-70
2021/03/31 10:16:09;;;;;;;38.63;22.65;;;;;;;18.80;59.55;99914.72;258311;1116;115298;-73
2021/03/31 10:21:35;;;;;;;36.18;24.13;;;;;;;19.00;59.07;99913.94;258143;1116;115122;-73
2021/03/31 10:27:15;;;;;;;;;;;;;;;;;;;;;
2021/03/31 10:32:38;;;;;;;30.80;18.50;;;;;;;19.45;58.44;99892.15;256395;1116;114797;-67
2021/03/31 10:38:01;;;;;;;27.50;20.30;;;;;;;19.61;58.12;99884.45;257663;1118;115937;-66
2021/03/31 10:54:00;;;;;;;29.13;16.85;;;;;;;20.18;57.13;99855.21;258425;1115;114971;-66
2021/03/31 10:59:07;;;;;;;23.95;16.48;;;;;;;20.34;56.45;99854.67;258306;1116;114847;-66
2021/03/31 11:04:10;;;;;;;26.48;15.55;;;;;;;20.46;56.17;99850.03;258341;1116;115152;-66
2021/03/31 11:09:13;;;;;;;26.95;15.98;;;;;;;20.61;55.71;99842.40;258470;1115;114718;-66
2021/03/31 11:14:19;;;;;;;21.20;12.03;;;;;;;20.70;55.48;99826.19;258319;1116;115250;-66
2021/03/31 11:30:09;;;;;;;18.70;10.45;;;;;;;21.24;54.82;99813.09;258339;1116;115116;-65
2021/03/31 11:35:15;;;;;;;15.55;10.13;;;;;;;21.37;54.36;99813.67;257982;1116;114952;-66
2021/03/31 11:40:43;;;;;;;20.70;12.45;;;;;;;21.47;53.72;99810.95;258116;1116;115649;-66
2021/03/31 11:46:11;;;;;;;20.65;11.28;;;;;;;21.67;53.62;99795.47;258264;1116;115104;-66
2021/03/31 11:51:48;;;;;;;21.08;11.25;;;;;;;21.83;53.22;99782.16;258211;1116;117826;-66
2021/03/31 11:56:56;;;;;;;18.13;11.13;;;;;;;22.03;52.76;99779.36;258159;1116;114963;-66
2021/03/31 12:02:14;;;;;;;17.20;10.83;;;;;;;22.27;52.74;99765.28;258292;1116;114732;-66
2021/03/31 12:08:05;;;;;;;18.35;10.63;;;;;;;22.49;52.33;99764.86;258040;1114;115455;-66
2021/03/31 12:13:27;;;;;;;17.95;10.45;;;;;;;22.69;51.65;99754.71;258154;1116;115639;-67
2021/03/31 12:18:48;;;;;;;26.08;18.83;;;;;;;22.84;51.61;99736.85;258224;1116;114922;-67
2021/03/31 12:23:56;;;;;;;19.80;10.60;;;;;;;23.05;51.58;99731.11;258251;1116;116170;-66
2021/03/31 12:29:01;;;;;;;16.98;10.28;;;;;;;23.24;50.56;99719.20;258454;1116;114722;-65
2021/03/31 12:34:04;;;;;;;16.98;10.18;;;;;;;23.46;50.56;99709.64;258398;1116;114638;-65
2021/03/31 12:39:12;;;;;;;18.18;9.13;;;;;;;23.65;50.22;99705.00;258404;1116;115167;-66
2021/03/31 12:44:18;;;;;;;16.35;8.43;;;;;;;23.86;50.14;99691.86;258465;1116;115150;-67
2021/03/31 12:49:26;;;;;;;18.05;8.33;;;;;;;24.10;49.76;99682.92;258428;1116;114788;-67
2021/03/31 12:55:01;;;;;;;12.38;9.13;;;;;;;24.35;49.63;99680.23;258391;1116;115527;-67
2021/03/31 13:00:20;;;;;;;17.03;9.78;;;;;;;24.45;48.37;99673.64;258196;1116;114698;-69
2021/03/31 13:05:58;;;;;;;14.83;8.83;;;;;;;24.53;48.03;99662.78;258197;1115;115139;-67
2021/03/31 13:12:08;;;;;;;15.60;9.68;;;;;;;24.71;48.15;99662.61;257917;1116;115474;-66
2021/03/31 13:39:55;;;;;;;14.95;8.60;;;;;;;25.30;46.69;99615.20;258022;1116;115226;-70
2021/03/31 13:44:57;;;;;;;14.48;7.88;;;;;;;25.21;45.95;99601.61;258350;1114;115091;-68
2021/03/31 13:50:14;;;;;;;13.70;8.35;;;;;;;25.29;46.12;99595.28;258391;1116;114946;-67
2021/03/31 13:55:23;;;;;;;12.65;7.55;;;;;;;25.45;45.63;99594.38;258179;1116;116246;-67
2021/03/31 14:00:29;;;;;;;14.15;8.63;;;;;;;25.44;45.19;99581.75;258265;1116;115723;-67
2021/03/31 14:05:57;;;;;;;15.05;7.30;;;;;;;25.18;44.48;99580.17;258293;1116;115938;-67
2021/03/31 14:11:21;;;;;;;16.48;8.53;;;;;;;24.75;44.51;99571.39;258175;1115;115167;-66
2021/03/31 14:16:32;;;;;;;14.98;6.83;;;;;;;24.41;44.79;99576.21;258201;1114;114697;-67
2021/03/31 14:21:48;;;;;;;10.38;6.18;;;;;;;24.07;44.35;99564.44;258068;1116;115141;-66
2021/03/31 14:27:11;;;;;;;14.15;8.35;;;;;;;23.80;45.03;99552.00;258221;1115;114673;-68
2021/03/31 14:32:21;;;;;;;26.93;17.28;;;;;;;23.61;44.80;99552.30;258155;1115;115477;-68
2021/03/31 14:38:27;;;;;;;10.75;7.25;;;;;;;23.38;45.01;99547.47;258181;1116;116545;-69
2021/03/31 14:44:19;;;;;;;22.03;13.55;;;;;;;23.20;45.32;99538.58;258145;1116;116133;-67
2021/03/31 14:49:53;;;;;;;12.40;6.80;;;;;;;23.04;45.25;99523.06;258344;1116;115273;-67
2021/03/31 15:00:59;;;;;;;16.23;6.90;;;;;;;22.78;45.19;99511.37;258258;1116;116315;-68
2021/03/31 15:06:24;;;;;;;;;;;;;;;22.67;45.21;99504.36;258268;1116;115292;-67
2021/03/31 15:11:26;;;;;;;15.80;7.73;;;;;;;22.56;45.36;99496.51;258327;1116;102191;-67
2021/03/31 15:16:58;;;;;;;15.73;8.60;;;;;;;22.47;45.48;99495.59;257985;1117;114827;-66
2021/03/31 15:27:32;;;;;;;15.45;8.65;;;;;;;22.32;45.38;99487.20;258219;1115;114896;-67
2021/03/31 15:33:21;;;;;;;15.10;8.38;;;;;;;22.23;45.38;99480.02;258267;1115;116235;-67
2021/03/31 15:38:43;;;;;;;12.33;7.28;;;;;;;22.18;45.47;99476.91;258136;1116;116045;-68
2021/03/31 15:43:53;;;;;;;16.60;6.87;;;;;;;22.11;45.03;99470.39;258040;1115;115039;-68
2021/03/31 15:49:04;;;;;;;11.63;6.43;;;;;;;22.04;45.20;99467.47;258128;1115;116006;-68
2021/03/31 15:54:22;;;;;;;;;;;;;;;;;;;;;
2021/03/31 15:59:44;;;;;;;13.13;5.93;;;;;;;21.93;45.14;99459.59;257989;1117;114694;-69
2021/03/31 16:05:38;;;;;;;10.35;5.43;;;;;;;21.88;45.35;99454.66;258096;1115;115694;-68
2021/03/31 16:11:14;;;;;;;10.63;5.30;;;;;;;21.85;45.40;99454.97;257827;1116;115996;-67
2021/03/31 16:16:36;;;;;;;10.38;5.60;;;;;;;21.83;45.46;99448.84;258275;1116;114910;-64
2021/03/31 16:21:56;;;;;;;10.35;5.33;;;;;;;21.76;45.29;99439.64;258349;1116;114575;-68
2021/03/31 16:27:12;;;;;;;32.23;24.45;;;;;;;21.71;45.54;99436.57;258153;1115;116515;-66
2021/03/31 16:32:21;;;;;;;73.30;56.55;;;;;;;21.64;45.62;99440.92;258193;1116;116205;-68
2021/03/31 16:37:49;;;;;;;39.18;25.65;;;;;;;21.56;45.69;99432.70;257886;1116;114836;-68
2021/03/31 16:43:14;;;;;;;59.98;42.73;;;;;;;21.47;46.13;99431.80;257630;1116;115097;-66
2021/03/31 16:48:32;;;;;;;27.35;17.25;;;;;;;21.37;46.02;99426.45;258045;1116;115123;-65
2021/03/31 16:53:47;;;;;;;33.50;15.05;;;;;;;21.29;46.07;99420.06;258131;1116;116718;-66
2021/03/31 16:59:01;;;;;;;17.28;7.83;;;;;;;21.16;46.15;99418.60;258152;1116;115742;-67
2021/03/31 17:04:20;;;;;;;15.35;7.15;;;;;;;21.01;46.28;99417.41;258122;1115;114721;-67
2021/03/31 17:09:36;;;;;;;31.13;15.60;;;;;;;20.87;46.52;99421.48;258172;1115;114924;-68
2021/03/31 17:15:32;;;;;;;19.07;7.67;;;;;;;20.66;46.82;99410.09;258174;1116;115707;-66
2021/03/31 17:20:40;;;;;;;26.08;8.38;;;;;;;20.51;46.89;99420.53;258117;1116;116442;-68
2021/03/31 17:26:17;;;;;;;;;;;;;;;;;;;;;
2021/03/31 17:31:48;;;;;;;;;;;;;;;20.18;47.52;99413.81;257942;1116;115540;-68
2021/03/31 17:37:02;;;;;;;42.93;8.55;;;;;;;20.00;47.54;99411.84;258271;1115;101370;-67
2021/03/31 17:42:43;;;;;;;39.13;8.30;;;;;;;19.83;47.89;99410.75;258147;1115;116008;-69
2021/03/31 17:47:55;;;;;;;33.00;8.93;;;;;;;19.67;48.11;99412.37;258059;1114;114926;-71
2021/03/31 17:53:13;;;;;;;49.48;9.38;;;;;;;19.54;48.54;99416.17;258130;1116;114671;-68
2021/03/31 17:58:23;;;;;;;36.18;11.55;;;;;;;19.50;49.20;99424.70;257991;1116;116250;-68
2021/03/31 18:03:45;;;;;;;53.85;17.05;;;;;;;19.39;49.32;99422.98;258106;1114;115350;-66
2021/03/31 18:09:00;;;;;;;37.33;10.50;;;;;;;19.21;49.13;99413.89;258174;1115;115348;-69
2021/03/31 18:14:11;;;;;;;32.10;9.68;;;;;;;19.03;49.38;99421.83;258051;1116;115497;-69
2021/03/31 18:19:50;;;;;;;;;;;;;;;;;;;;;
2021/03/31 18:25:12;;;;;;;41.03;10.45;;;;;;;18.60;49.76;99415.72;257808;1116;115466;-67
2021/03/31 18:30:25;;;;;;;33.20;8.58;;;;;;;18.43;50.21;99417.22;258199;1116;115694;-68
2021/03/31 18:35:36;;;;;;;29.18;9.30;;;;;;;18.29;50.29;99412.20;258076;1116;115559;-67
2021/03/31 18:46:11;;;;;;;35.85;11.78;;;;;;;18.05;50.56;99419.75;258286;1115;115327;-67
2021/03/31 18:51:31;;;;;;;39.78;13.50;;;;;;;17.95;51.00;99416.99;257924;1116;115416;-67
2021/03/31 18:56:41;;;;;;;43.33;16.20;;;;;;;17.85;51.47;99416.08;258165;1116;115652;-67
2021/03/31 19:01:59;;;;;;;45.58;15.18;;;;;;;17.74;52.13;99422.36;258296;1115;115267;-67
2021/03/31 19:07:09;;;;;;;56.73;17.33;;;;;;;17.63;52.12;99417.89;258164;1116;116341;-68
2021/03/31 19:12:24;;;;;;;46.93;17.03;;;;;;;17.54;52.68;99415.98;258163;1116;115065;-68
2021/03/31 19:17:33;;;;;;;54.53;18.75;;;;;;;17.44;52.63;99406.98;258149;1116;116616;-66
2021/03/31 19:22:43;;;;;;;58.78;17.88;;;;;;;17.34;53.03;99411.42;258181;1116;116211;-66
2021/03/31 19:27:58;;;;;;;62.40;18.38;;;;;;;17.24;53.29;99404.12;258249;1115;115873;-66
2021/03/31 19:33:08;;;;;;;52.38;19.68;;;;;;;17.17;53.52;99397.55;258247;1116;116730;-66
2021/03/31 19:38:23;;;;;;;54.90;18.68;;;;;;;17.05;54.00;99401.28;258107;1116;114593;-66
2021/03/31 19:43:29;;;;;;;54.40;19.67;;;;;;;16.96;53.91;99386.75;258171;1115;114805;-65
2021/03/31 19:48:47;;;;;;;47.70;17.78;;;;;;;16.88;54.18;99382.97;258243;1116;116135;-65
2021/03/31 19:54:00;;;;;;;45.00;17.63;;;;;;;16.77;54.19;99375.80;258175;1116;115307;-65
2021/03/31 19:59:13;;;;;;;58.35;19.38;;;;;;;16.67;54.43;99372.13;258177;1116;117302;-66
2021/03/31 20:04:32;;;;;;;51.13;19.28;;;;;;;16.54;54.62;99366.89;258224;1116;115901;-66
2021/03/31 20:09:49;;;;;;;46.68;20.48;;;;;;;16.44;54.70;99372.19;258139;1115;114850;-66
2021/03/31 20:14:55;;;;;;;49.75;21.25;;;;;;;16.37;55.13;99375.47;258154;1116;115058;-66
2021/03/31 20:20:09;;;;;;;52.08;22.03;;;;;;;16.28;55.30;99372.55;258173;1116;115670;-66
2021/03/31 20:25:15;;;;;;;43.40;21.68;;;;;;;16.19;55.52;99373.28;258175;1115;115901;-66
2021/03/31 20:30:27;;;;;;;53.50;21.80;;;;;;;16.09;55.65;99374.98;258139;1115;114766;-66
2021/03/31 20:35:38;;;;;;;45.30;20.18;;;;;;;15.97;55.80;99371.46;257970;1116;115094;-66
2021/03/31 20:40:46;;;;;;;49.65;22.10;;;;;;;15.89;56.14;99364.98;258216;1116;114594;-66
2021/03/31 20:45:54;;;;;;;57.65;25.60;;;;;;;15.77;56.44;99364.97;258159;1116;115268;-66
2021/03/31 20:51:06;;;;;;;70.13;30.63;;;;;;;15.68;56.61;99357.63;258152;1116;114889;-66
2021/03/31 20:56:14;;;;;;;68.98;28.75;;;;;;;15.59;56.63;99360.98;258247;1116;115366;-68
2021/03/31 21:01:29;;;;;;;54.30;26.23;;;;;;;15.49;56.89;99343.90;258089;1116;114685;-68
2021/03/31 21:06:37;;;;;;;64.63;26.55;;;;;;;15.45;57.02;99339.75;258179;1116;116047;-67
2021/03/31 21:11:45;;;;;;;70.93;30.20;;;;;;;15.41;57.21;99343.65;258171;1116;115142;-68
2021/03/31 21:16:56;;;;;;;70.73;29.45;;;;;;;15.33;57.56;99330.84;258253;1116;114850;-68
2021/03/31 21:22:06;;;;;;;73.25;30.93;;;;;;;15.25;57.63;99342.16;258186;1115;115797;-67
2021/03/31 21:27:16;;;;;;;73.23;32.03;;;;;;;15.14;57.71;99339.42;258039;1115;114991;-67
2021/03/31 21:32:26;;;;;;;80.68;34.18;;;;;;;15.05;57.44;99340.14;258209;1116;116324;-66
2021/03/31 21:37:34;;;;;;;80.28;35.73;;;;;;;14.89;57.67;99338.60;258129;1114;114793;-69
2021/03/31 21:42:44;;;;;;;87.95;37.20;;;;;;;14.80;58.03;99341.11;258222;1116;115163;-68
2021/03/31 21:47:55;;;;;;;71.43;35.88;;;;;;;14.72;58.08;99340.84;258195;1116;115032;-70
2021/03/31 21:53:00;;;;;;;82.15;38.55;;;;;;;14.60;58.28;99337.23;258078;1116;115062;-70
2021/03/31 21:58:08;;;;;;;78.08;38.28;;;;;;;14.50;58.48;99331.69;258135;1116;116056;-70
2021/03/31 22:03:17;;;;;;;79.80;35.75;;;;;;;14.42;58.45;99339.41;258239;1115;114823;-69
2021/03/31 22:08:24;;;;;;;75.88;34.88;;;;;;;14.32;58.37;99331.19;258170;1116;115187;-69
2021/03/31 22:13:41;;;;;;;78.05;36.93;;;;;;;14.27;59.10;99329.83;258207;1116;115876;-69
2021/03/31 22:18:48;;;;;;;83.00;37.53;;;;;;;14.25;59.51;99327.25;258205;1116;115283;-68
2021/03/31 22:24:02;;;;;;;78.68;37.73;;;;;;;14.25;59.35;99327.25;258202;1116;115006;-68
2021/03/31 22:29:06;;;;;;;72.03;37.75;;;;;;;14.21;59.58;99320.41;258302;1116;114434;-67
2021/03/31 22:34:13;;;;;;;75.88;39.83;;;;;;;14.13;59.66;99326.33;258155;1115;114785;-68
2021/03/31 22:39:24;;;;;;;75.13;37.68;;;;;;;14.04;59.55;99318.95;258239;1116;115176;-67
2021/03/31 22:44:27;;;;;;;81.60;36.53;;;;;;;14.00;59.36;99317.47;258061;1116;203879;-67
2021/03/31 22:49:44;;;;;;;64.73;36.98;;;;;;;13.95;59.53;99324.95;258323;1116;116105;-67
2021/03/31 22:54:47;;;;;;;74.88;37.95;;;;;;;13.89;59.60;99312.00;258334;1116;117012;-66
2021/03/31 22:59:52;;;;;;;76.90;38.85;;;;;;;13.83;60.14;99310.64;258405;1116;114802;-68
2021/03/31 23:04:56;;;;;;;69.25;36.65;;;;;;;13.78;60.54;99299.40;258410;1116;114841;-69
2021/03/31 23:09:59;;;;;;;69.68;36.95;;;;;;;13.77;60.73;99300.38;258326;1116;115024;-67
2021/03/31 23:15:06;;;;;;;69.88;36.25;;;;;;;13.79;60.37;99295.78;258436;1115;114832;-68
2021/03/31 23:20:13;;;;;;;77.33;38.45;;;;;;;13.79;60.85;99293.11;258356;1115;116536;-70
2021/03/31 23:25:23;;;;;;;70.98;36.75;;;;;;;13.77;60.45;99284.33;258321;1116;115713;-70
2021/03/31 23:30:26;;;;;;;68.03;36.15;;;;;;;13.69;60.52;99281.35;258410;1116;115251;-66
2021/03/31 23:35:32;;;;;;;68.00;34.33;;;;;;;13.63;60.43;99279.11;258133;1116;114873;-66
2021/03/31 23:40:37;;;;;;;55.03;31.00;;;;;;;13.72;60.47;99271.29;258291;1116;115529;-67
2021/03/31 23:45:45;;;;;;;55.80;31.78;;;;;;;13.88;61.15;99267.50;258353;1116;114852;-69
2021/03/31 23:50:50;;;;;;;53.70;31.30;;;;;;;14.02;60.84;99266.50;258317;1116;114946;-68
2021/03/31 23:55:56;;;;;;;55.88;29.58;;;;;;;14.12;60.26;99257.69;258387;1116;114633;-68
